createdAt,value
2018-12-13T00:01:05.403Z,33.33
2018-12-13T00:03:32.225Z,29.87
2018-12-13T00:05:59.417Z,27.47
2018-12-13T00:08:29.192Z,28.17
2018-12-13T00:10:55.481Z,23.80
2018-12-13T00:13:22.501Z,28.10
2018-12-13T00:15:49.547Z,29.73
2018-12-13T00:18:15.747Z,31.30
2018-12-13T00:20:42.400Z,31.50
2018-12-13T00:23:08.631Z,27.60
2018-12-13T00:25:34.842Z,28.67
2018-12-13T00:28:00.714Z,28.77
2018-12-13T00:30:26.894Z,27.07
2018-12-13T00:32:53.126Z,27.10
2018-12-13T00:35:19.430Z,25.93
2018-12-13T00:37:45.618Z,25.00
2018-12-13T00:40:11.789Z,25.70
2018-12-13T00:42:37.850Z,27.83
2018-12-13T00:45:04.582Z,29.83
2018-12-13T00:47:30.518Z,28.43
2018-12-13T00:49:56.758Z,31.43
2018-12-13T00:52:22.929Z,27.13
2018-12-13T00:54:49.586Z,25.27
2018-12-13T00:57:15.972Z,34.10
2018-12-13T00:59:42.832Z,31.70
2018-12-13T01:02:09.103Z,25.77
2018-12-13T01:04:35.342Z,34.17
2018-12-13T01:07:01.520Z,26.73
2018-12-13T01:09:27.756Z,31.10
2018-12-13T01:11:54.268Z,34.00
2018-12-13T01:14:20.221Z,30.23
2018-12-13T01:16:46.445Z,32.03
2018-12-13T01:19:12.904Z,29.97
2018-12-13T01:21:38.969Z,32.43
2018-12-13T01:24:05.132Z,31.63
2018-12-13T01:26:31.389Z,32.67
2018-12-13T01:28:57.585Z,30.90
2018-12-13T01:31:23.818Z,33.93
2018-12-13T01:33:50.203Z,33.03
2018-12-13T01:36:16.274Z,28.77
2018-12-13T01:38:42.488Z,26.80
2018-12-13T01:41:08.793Z,30.83
2018-12-13T01:43:34.995Z,25.03
2018-12-13T01:46:01.178Z,27.13
2018-12-13T01:48:28.007Z,28.90
2018-12-13T01:50:54.060Z,24.30
2018-12-13T01:53:20.288Z,25.23
2018-12-13T01:55:47.092Z,23.63
2018-12-13T01:58:13.134Z,21.97
2018-12-13T02:00:39.397Z,24.53
2018-12-13T02:03:05.643Z,27.70
2018-12-13T02:05:31.820Z,23.23
2018-12-13T02:07:58.036Z,25.23
2018-12-13T02:10:25.590Z,27.43
2018-12-13T02:12:51.803Z,27.67
2018-12-13T02:15:17.998Z,28.43
2018-12-13T02:17:44.457Z,27.33
2018-12-13T02:20:10.442Z,25.70
2018-12-13T02:22:37.504Z,28.43
2018-12-13T02:25:04.403Z,26.93
2018-12-13T02:27:30.361Z,26.87
2018-12-13T02:29:56.584Z,27.57
2018-12-13T02:32:22.863Z,23.97
2018-12-13T02:34:48.806Z,24.67
2018-12-13T02:37:14.855Z,24.73
2018-12-13T02:39:41.112Z,23.23
2018-12-13T02:42:07.323Z,23.23
2018-12-13T02:44:33.542Z,26.73
2018-12-13T02:47:00.338Z,30.27
2018-12-13T02:49:26.414Z,29.87
2018-12-13T02:51:52.655Z,30.23
2018-12-13T02:54:19.736Z,25.50
2018-12-13T02:56:45.920Z,28.37
2018-12-13T02:59:12.142Z,28.57
2018-12-13T03:01:38.934Z,24.20
2018-12-13T03:04:05.008Z,24.33
2018-12-13T03:06:31.271Z,24.87
2018-12-13T03:08:57.534Z,21.83
2018-12-13T03:11:23.670Z,21.37
2018-12-13T03:13:49.916Z,21.63
2018-12-13T03:16:16.379Z,21.27
2018-12-13T03:18:42.402Z,19.10
2018-12-13T03:21:15.900Z,19.10
2018-12-13T03:23:42.196Z,17.17
2018-12-13T03:26:08.481Z,18.37
2018-12-13T03:28:34.766Z,16.73
2018-12-13T03:31:01.723Z,19.90
2018-12-13T03:33:27.946Z,21.83
2018-12-13T03:35:54.752Z,21.33
2018-12-13T03:38:20.788Z,19.63
2018-12-13T03:40:47.094Z,23.47
2018-12-13T03:43:13.433Z,23.27
2018-12-13T03:45:39.518Z,19.43
2018-12-13T03:48:05.730Z,25.00
2018-12-13T03:50:32.528Z,22.63
2018-12-13T03:52:58.622Z,18.97
2018-12-13T03:55:24.829Z,21.20
2018-12-13T03:57:51.622Z,20.87
2018-12-13T04:00:17.693Z,25.07
2018-12-13T04:02:44.715Z,24.77
2018-12-13T04:05:10.994Z,22.80
2018-12-13T04:07:37.272Z,21.47
2018-12-13T04:10:03.700Z,23.20
2018-12-13T04:12:29.874Z,22.73
2018-12-13T04:14:55.879Z,22.67
2018-12-13T04:17:22.103Z,23.93
2018-12-13T04:19:48.883Z,20.40
2018-12-13T04:22:28.378Z,23.97
2018-12-13T04:24:54.355Z,23.17
2018-12-13T04:27:20.539Z,23.90
2018-12-13T04:29:46.766Z,26.67
2018-12-13T04:32:13.579Z,27.23
2018-12-13T04:34:39.498Z,26.57
2018-12-13T04:37:05.507Z,24.93
2018-12-13T04:39:31.936Z,24.63
2018-12-13T04:41:59.127Z,22.77
2018-12-13T04:44:25.362Z,25.63
2018-12-13T04:46:51.701Z,25.50
2018-12-13T04:49:17.853Z,25.70
2018-12-13T04:51:44.040Z,28.03
2018-12-13T04:54:10.846Z,26.23
2018-12-13T04:56:36.940Z,24.77
2018-12-13T04:59:03.142Z,28.80
2018-12-13T05:01:29.409Z,29.90
2018-12-13T05:03:55.609Z,29.13
2018-12-13T05:06:21.824Z,27.23
2018-12-13T05:08:48.107Z,26.23
2018-12-13T05:11:14.264Z,27.60
2018-12-13T05:13:40.545Z,28.17
2018-12-13T05:16:06.768Z,28.10
2018-12-13T05:18:32.969Z,27.83
2018-12-13T05:20:59.186Z,25.33
2018-12-13T05:23:25.459Z,27.47
2018-12-13T05:25:51.673Z,27.87
2018-12-13T05:28:17.897Z,29.33
2018-12-13T05:30:44.189Z,29.57
2018-12-13T05:33:10.462Z,35.20
2018-12-13T05:35:36.424Z,27.00
2018-12-13T05:38:02.921Z,28.13
2018-12-13T05:40:29.049Z,32.33
2018-12-13T05:42:55.257Z,28.43
2018-12-13T05:45:28.510Z,30.63
2018-12-13T05:47:54.697Z,30.83
2018-12-13T05:50:20.905Z,32.17
2018-12-13T05:52:47.199Z,33.50
2018-12-13T05:55:13.351Z,32.90
2018-12-13T05:57:39.589Z,34.33
2018-12-13T06:00:06.632Z,34.93
2018-12-13T06:02:32.860Z,33.03
2018-12-13T06:04:59.168Z,33.97
2018-12-13T06:07:25.348Z,36.40
2018-12-13T06:09:51.574Z,34.43
2018-12-13T06:12:17.772Z,35.63
2018-12-13T06:14:44.044Z,31.63
2018-12-13T06:17:10.253Z,32.70
2018-12-13T06:19:36.498Z,33.23
2018-12-13T06:22:02.829Z,30.17
2018-12-13T06:24:28.953Z,33.33
2018-12-13T06:26:55.149Z,33.37
2018-12-13T06:29:21.950Z,35.67
2018-12-13T06:31:48.060Z,37.00
2018-12-13T06:34:14.278Z,32.13
2018-12-13T06:36:40.531Z,35.03
2018-12-13T06:39:06.767Z,32.50
2018-12-13T06:41:32.924Z,32.00
2018-12-13T06:43:59.226Z,32.83
2018-12-13T06:46:25.406Z,29.13
2018-12-13T06:48:51.624Z,31.50
2018-12-13T06:51:18.090Z,35.07
2018-12-13T06:53:44.096Z,36.73
2018-12-13T06:56:10.309Z,35.17
2018-12-13T06:58:36.607Z,35.67
2018-12-13T07:01:02.563Z,34.90
2018-12-13T07:03:28.452Z,33.60
2018-12-13T07:05:54.946Z,29.33
2018-12-13T07:08:20.838Z,35.87
2018-12-13T07:10:46.781Z,32.37
2018-12-13T07:13:12.862Z,33.27
2018-12-13T07:15:38.739Z,30.20
2018-12-13T07:18:11.534Z,33.27
2018-12-13T07:20:37.834Z,32.57
2018-12-13T07:23:03.740Z,36.50
2018-12-13T07:25:29.636Z,31.10
2018-12-13T07:27:55.651Z,32.37
2018-12-13T07:30:21.557Z,31.53
2018-12-13T07:32:47.478Z,30.83
2018-12-13T07:35:13.397Z,30.60
2018-12-13T07:37:39.322Z,32.73
2018-12-13T07:40:06.114Z,27.27
2018-12-13T07:42:32.763Z,26.50
2018-12-13T07:44:58.653Z,26.00
2018-12-13T07:47:24.544Z,26.33
2018-12-13T07:49:50.492Z,28.07
2018-12-13T07:52:16.397Z,24.37
2018-12-13T07:54:42.306Z,22.97
2018-12-13T07:57:08.625Z,22.53
2018-12-13T07:59:34.514Z,25.13
2018-12-13T08:02:00.424Z,24.47
2018-12-13T08:04:26.390Z,26.67
2018-12-13T08:06:52.347Z,24.37
2018-12-13T08:09:18.240Z,27.37
2018-12-13T08:11:44.779Z,26.23
2018-12-13T08:14:10.699Z,22.80
2018-12-13T08:16:36.690Z,23.57
2018-12-13T08:19:03.044Z,25.77
2018-12-13T08:21:28.959Z,18.67
2018-12-13T08:23:54.849Z,24.13
2018-12-13T08:26:20.794Z,26.63
2018-12-13T08:28:46.684Z,22.70
2018-12-13T08:31:12.666Z,21.40
2018-12-13T08:33:38.605Z,24.23
2018-12-13T08:36:04.558Z,24.30
2018-12-13T08:38:30.462Z,21.07
2018-12-13T08:40:56.571Z,23.17
2018-12-13T08:43:22.470Z,22.93
2018-12-13T08:45:48.364Z,24.60
2018-12-13T08:48:14.544Z,20.53
2018-12-13T08:50:40.437Z,22.30
2018-12-13T08:53:06.379Z,23.00
2018-12-13T08:55:32.359Z,22.67
2018-12-13T08:57:58.277Z,22.27
2018-12-13T09:00:24.169Z,20.93
2018-12-13T09:02:50.544Z,23.23
2018-12-13T09:05:16.482Z,20.40
2018-12-13T09:07:42.383Z,23.83
2018-12-13T09:10:08.334Z,20.83
2018-12-13T09:12:34.236Z,22.30
2018-12-13T09:15:00.132Z,22.77
2018-12-13T09:17:26.089Z,18.77
2018-12-13T09:19:51.982Z,22.00
2018-12-13T09:22:17.953Z,18.53
2018-12-13T09:24:44.251Z,20.10
2018-12-13T09:27:10.130Z,20.80
2018-12-13T09:29:36.086Z,20.63
2018-12-13T09:32:02.012Z,19.57
2018-12-13T09:34:27.912Z,19.90
2018-12-13T09:36:53.830Z,22.07
2018-12-13T09:39:19.819Z,18.70
2018-12-13T09:41:45.730Z,17.27
2018-12-13T09:44:13.662Z,17.37
2018-12-13T09:46:39.904Z,19.17
2018-12-13T09:49:05.804Z,17.97
2018-12-13T09:51:31.696Z,22.30
2018-12-13T09:53:57.653Z,20.00
2018-12-13T09:56:23.563Z,20.30
2018-12-13T10:01:44.576Z,25.47
2018-12-13T10:04:10.842Z,23.53
2018-12-13T10:06:37.021Z,20.67
2018-12-13T10:09:04.388Z,19.20
2018-12-13T10:11:30.694Z,28.17
2018-12-13T10:13:56.582Z,26.40
2018-12-13T10:16:22.811Z,22.70
2018-12-13T10:18:49.002Z,28.63
2018-12-13T10:21:15.206Z,23.70
2018-12-13T10:23:41.426Z,23.47
2018-12-13T10:26:07.752Z,21.87
2018-12-13T10:28:33.888Z,22.63
2018-12-13T10:31:00.114Z,27.37
2018-12-13T10:33:26.439Z,23.27
2018-12-13T10:35:53.408Z,24.90
2018-12-13T10:38:19.661Z,21.20
2018-12-13T10:40:46.434Z,17.37
2018-12-13T10:43:12.528Z,23.63
2018-12-13T10:45:38.433Z,19.63
2018-12-13T10:48:04.576Z,22.83
2018-12-13T10:50:30.786Z,21.80
2018-12-13T10:52:57.001Z,23.17
2018-12-13T10:55:23.336Z,20.53
2018-12-13T10:57:49.460Z,19.10
2018-12-13T11:00:22.425Z,21.93
2018-12-13T11:02:55.263Z,21.97
2018-12-13T11:05:22.470Z,18.77
2018-12-13T11:07:48.704Z,22.40
2018-12-13T11:10:15.013Z,20.63
2018-12-13T11:12:41.158Z,22.83
2018-12-13T11:15:07.111Z,22.03
2018-12-13T11:17:33.443Z,23.37
2018-12-13T11:19:59.446Z,24.70
2018-12-13T11:22:25.652Z,18.47
2018-12-13T11:24:51.924Z,21.90
2018-12-13T11:27:23.779Z,24.23
2018-12-13T11:29:56.412Z,19.50
2018-12-13T11:32:22.456Z,22.50
2018-12-13T11:34:48.689Z,43.67
2018-12-13T11:37:14.959Z,22.53
2018-12-13T11:39:41.134Z,22.03
2018-12-13T11:42:07.410Z,22.37
2018-12-13T11:44:33.835Z,19.43
2018-12-13T11:46:59.832Z,21.03
2018-12-13T11:49:26.064Z,23.27
2018-12-13T11:51:52.315Z,23.30
2018-12-13T11:54:20.049Z,24.80
2018-12-13T11:56:46.001Z,25.73
2018-12-13T11:59:12.228Z,20.00
2018-12-13T12:01:38.431Z,18.83
2018-12-13T12:04:04.659Z,26.30
2018-12-13T12:06:30.966Z,22.27
2018-12-13T12:08:57.097Z,20.27
2018-12-13T12:11:23.328Z,18.70
2018-12-13T12:13:49.646Z,17.13
2018-12-13T12:16:15.830Z,23.93
2018-12-13T12:18:42.025Z,26.13
2018-12-13T12:21:08.278Z,17.67
2018-12-13T12:23:34.494Z,18.90
2018-12-13T12:28:53.569Z,18.43
2018-12-13T12:31:19.844Z,24.93
2018-12-13T12:33:45.996Z,17.53
2018-12-13T12:36:12.265Z,22.27
2018-12-13T12:38:38.537Z,21.23
2018-12-13T12:41:04.707Z,15.67
2018-12-13T12:43:30.942Z,19.33
2018-12-13T12:45:57.406Z,19.23
2018-12-13T12:48:23.396Z,19.50
2018-12-13T12:50:49.615Z,21.23
2018-12-13T12:53:15.881Z,21.90
2018-12-13T12:55:42.060Z,21.20
2018-12-13T12:58:08.389Z,22.37
2018-12-13T13:00:34.335Z,26.07
2018-12-13T13:03:00.390Z,15.77
2018-12-13T13:05:26.578Z,17.47
2018-12-13T13:07:52.837Z,17.70
2018-12-13T13:10:19.037Z,18.87
2018-12-13T13:12:45.270Z,18.93
2018-12-13T13:15:11.547Z,21.00
2018-12-13T13:17:37.774Z,18.83
2018-12-13T13:20:03.735Z,22.03
2018-12-13T13:22:29.800Z,18.67
2018-12-13T13:24:56.007Z,21.77
2018-12-13T13:27:22.033Z,21.47
2018-12-13T13:29:48.588Z,20.77
2018-12-13T13:32:14.482Z,23.60
2018-12-13T13:34:40.513Z,22.40
2018-12-13T13:37:06.770Z,20.93
2018-12-13T13:39:32.969Z,23.77
2018-12-13T13:41:59.237Z,23.00
2018-12-13T13:44:27.759Z,25.00
2018-12-13T13:46:54.119Z,23.23
2018-12-13T13:49:20.356Z,27.00
2018-12-13T13:51:46.814Z,24.57
2018-12-13T13:54:12.800Z,24.40
2018-12-13T13:56:39.026Z,21.63
2018-12-13T13:59:05.571Z,31.70
2018-12-13T14:01:31.540Z,29.17
2018-12-13T14:03:57.719Z,21.60
2018-12-13T14:06:23.972Z,20.30
2018-12-13T14:08:50.202Z,22.17
2018-12-13T14:11:16.416Z,24.70
2018-12-13T14:13:42.692Z,31.00
2018-12-13T14:16:15.310Z,29.30
2018-12-13T14:18:41.671Z,27.87
2018-12-13T14:21:07.922Z,35.40
2018-12-13T14:23:34.120Z,33.60
2018-12-13T14:26:00.327Z,26.20
2018-12-13T14:28:27.113Z,26.90
2018-12-13T14:30:53.188Z,26.20
2018-12-13T14:33:19.400Z,23.10
2018-12-13T14:35:46.214Z,22.60
2018-12-13T14:38:12.265Z,22.03
2018-12-13T14:40:38.509Z,20.60
2018-12-13T14:43:04.839Z,27.43
2018-12-13T14:45:30.958Z,37.30
2018-12-13T14:47:57.208Z,23.97
2018-12-13T14:50:23.474Z,20.70
2018-12-13T14:52:49.672Z,21.70
2018-12-13T14:55:17.533Z,25.17
2018-12-13T14:57:43.935Z,26.00
2018-12-13T15:00:10.007Z,29.53
2018-12-13T15:02:36.227Z,21.83
2018-12-13T15:05:02.483Z,22.10
2018-12-13T15:07:28.681Z,26.10
2018-12-13T15:09:54.470Z,27.80
2018-12-13T15:12:20.341Z,29.83
2018-12-13T15:14:46.526Z,27.80
2018-12-13T15:17:12.359Z,20.73
2018-12-13T15:19:38.197Z,22.57
2018-12-13T15:22:04.380Z,21.93
2018-12-13T15:24:30.199Z,21.60
2018-12-13T15:26:56.074Z,18.97
2018-12-13T15:29:22.245Z,19.37
2018-12-13T15:31:48.060Z,23.47
2018-12-13T15:34:13.928Z,24.30
2018-12-13T15:36:40.144Z,23.47
2018-12-13T15:39:05.939Z,19.47
2018-12-13T15:41:32.002Z,20.20
2018-12-13T15:43:58.803Z,18.03
2018-12-13T15:46:24.750Z,19.67
2018-12-13T15:48:51.440Z,19.10
2018-12-13T15:51:17.500Z,22.70
2018-12-13T15:53:43.333Z,20.23
2018-12-13T15:56:09.608Z,20.60
2018-12-13T15:58:35.404Z,20.43
2018-12-13T16:01:01.600Z,18.17
2018-12-13T16:03:27.461Z,17.97
2018-12-13T16:05:54.038Z,22.63
2018-12-13T16:08:20.298Z,18.57
2018-12-13T16:10:46.984Z,19.80
2018-12-13T16:13:13.219Z,19.73
2018-12-13T16:15:39.422Z,22.40
2018-12-13T16:18:05.640Z,17.80
2018-12-13T16:20:31.956Z,20.77
2018-12-13T16:22:57.873Z,21.23
2018-12-13T16:25:23.917Z,20.37
2018-12-13T16:27:49.831Z,17.27
2018-12-13T16:30:16.048Z,22.67
2018-12-13T16:32:42.199Z,18.37
2018-12-13T16:35:08.384Z,18.47
2018-12-13T16:37:34.630Z,15.13
2018-12-13T16:40:00.891Z,18.63
2018-12-13T16:42:27.227Z,18.90
2018-12-13T16:44:55.385Z,21.37
2018-12-13T16:47:21.592Z,21.87
2018-12-13T16:49:47.820Z,20.73
2018-12-13T16:52:14.053Z,20.23
2018-12-13T16:54:40.287Z,20.60
2018-12-13T16:57:06.476Z,19.53
2018-12-13T16:59:32.718Z,23.63
2018-12-13T17:01:59.005Z,24.87
2018-12-13T17:04:25.243Z,27.70
2018-12-13T17:06:51.404Z,24.67
2018-12-13T17:09:17.718Z,29.77
2018-12-13T17:11:44.034Z,28.37
2018-12-13T17:14:10.095Z,25.90
2018-12-13T17:16:36.344Z,32.07
2018-12-13T17:19:02.572Z,25.93
2018-12-13T17:21:28.778Z,28.10
2018-12-13T17:23:55.238Z,29.70
2018-12-13T17:26:21.242Z,30.00
2018-12-13T17:28:47.477Z,29.30
2018-12-13T17:31:13.776Z,29.33
2018-12-13T17:33:39.928Z,30.73
2018-12-13T17:36:06.154Z,29.70
2018-12-13T17:38:32.097Z,34.47
2018-12-13T17:40:58.208Z,30.77
2018-12-13T17:43:24.432Z,34.27
2018-12-13T17:45:50.715Z,29.63
2018-12-13T17:48:16.867Z,31.30
2018-12-13T17:50:43.117Z,31.00
2018-12-13T17:53:10.223Z,34.30
2018-12-13T17:55:36.372Z,32.57
2018-12-13T17:58:02.616Z,34.57
2018-12-13T18:00:28.914Z,27.00
2018-12-13T18:02:55.069Z,28.00
2018-12-13T18:05:21.290Z,31.83
2018-12-13T18:07:48.109Z,32.83
2018-12-13T18:10:14.169Z,32.03
2018-12-13T18:12:40.391Z,35.20
2018-12-13T18:15:06.698Z,34.23
2018-12-13T18:17:32.837Z,40.40
2018-12-13T18:19:59.065Z,33.33
2018-12-13T18:22:26.070Z,34.83
2018-12-13T18:24:52.388Z,34.33
2018-12-13T18:27:19.394Z,34.90
2018-12-13T18:29:46.037Z,30.60
2018-12-13T18:32:12.257Z,30.13
2018-12-13T18:34:38.499Z,28.67
2018-12-13T18:37:04.784Z,28.27
2018-12-13T18:39:30.974Z,27.03
2018-12-13T18:41:57.318Z,27.10
2018-12-13T18:44:23.421Z,27.40
2018-12-13T18:46:49.654Z,34.57
2018-12-13T18:49:15.844Z,32.77
2018-12-13T18:51:42.145Z,30.77
2018-12-13T18:54:08.325Z,33.17
2018-12-13T18:56:34.537Z,34.73
2018-12-13T18:59:01.030Z,27.07
2018-12-13T19:01:28.243Z,25.77
2018-12-13T19:03:54.651Z,28.43
2018-12-13T19:06:20.800Z,27.53
2018-12-13T19:08:46.959Z,23.43
2018-12-13T19:11:13.187Z,21.73
2018-12-13T19:13:39.455Z,24.10
2018-12-13T19:16:05.695Z,20.80
2018-12-13T19:18:31.846Z,22.97
2018-12-13T19:20:58.114Z,22.90
2018-12-13T19:23:24.290Z,22.57
2018-12-13T19:25:50.616Z,24.93
2018-12-13T19:28:16.557Z,23.80
2018-12-13T19:30:42.570Z,25.53
2018-12-13T19:33:08.793Z,25.90
2018-12-13T19:35:35.093Z,25.23
2018-12-13T19:38:01.250Z,27.83
2018-12-13T19:40:27.488Z,27.17
2018-12-13T19:42:53.747Z,24.37
2018-12-13T19:45:19.948Z,27.70
2018-12-13T19:47:46.161Z,27.63
2018-12-13T19:50:12.442Z,27.10
2018-12-13T19:52:38.620Z,24.73
2018-12-13T19:55:06.200Z,22.23
2018-12-13T19:57:32.341Z,21.47
2018-12-13T19:59:58.546Z,22.30
2018-12-13T20:02:24.762Z,25.97
2018-12-13T20:04:51.875Z,23.57
2018-12-13T20:07:18.048Z,22.13
2018-12-13T20:09:44.292Z,23.13
2018-12-13T20:12:11.570Z,23.60
2018-12-13T20:14:37.555Z,19.20
2018-12-13T20:17:03.820Z,17.27
2018-12-13T20:19:30.448Z,21.63
2018-12-13T20:21:56.649Z,19.43
2018-12-13T20:24:22.874Z,21.77
2018-12-13T20:26:49.129Z,21.60
2018-12-13T20:29:15.569Z,21.40
2018-12-13T20:31:45.252Z,24.20
2018-12-13T20:34:11.500Z,20.43
2018-12-13T20:36:37.707Z,25.47
2018-12-13T20:39:06.694Z,24.87
2018-12-13T20:41:32.651Z,27.73
2018-12-13T20:43:58.895Z,29.37
2018-12-13T20:46:25.082Z,27.63
2018-12-13T20:48:51.475Z,29.20
2018-12-13T20:51:18.893Z,29.03
2018-12-13T20:53:44.991Z,22.97
2018-12-13T20:56:11.484Z,28.87
2018-12-13T20:58:37.579Z,26.03
2018-12-13T21:01:03.756Z,22.60
2018-12-13T21:03:29.956Z,28.50
2018-12-13T21:05:56.559Z,26.63
2018-12-13T21:08:26.458Z,27.00
2018-12-13T21:10:54.766Z,29.50
2018-12-13T21:13:21.036Z,29.30
2018-12-13T21:15:47.185Z,30.27
2018-12-13T21:18:13.452Z,27.90
2018-12-13T21:20:39.629Z,27.87
2018-12-13T21:23:05.884Z,30.70
2018-12-13T21:25:32.305Z,35.53
2018-12-13T21:27:58.180Z,30.53
2018-12-13T21:30:25.508Z,28.80
2018-12-13T21:32:51.742Z,30.20
2018-12-13T21:35:17.820Z,30.13
2018-12-13T21:37:44.145Z,27.87
2018-12-13T21:40:10.373Z,28.40
2018-12-13T21:42:36.546Z,27.37
2018-12-13T21:45:04.300Z,29.37
2018-12-13T21:47:31.192Z,26.77
2018-12-13T21:49:57.263Z,28.80
2018-12-13T21:52:23.471Z,31.73
2018-12-13T21:54:49.739Z,28.80
2018-12-13T21:57:15.932Z,26.23
2018-12-13T21:59:42.173Z,26.13
2018-12-13T22:02:08.432Z,26.87
2018-12-13T22:04:35.449Z,31.63
2018-12-13T22:07:01.710Z,32.20
2018-12-13T22:09:27.980Z,27.10
2018-12-13T22:11:54.955Z,30.77
2018-12-13T22:14:21.999Z,27.40
2018-12-13T22:16:48.258Z,29.93
2018-12-13T22:19:16.506Z,34.10
2018-12-13T22:21:42.713Z,33.47
2018-12-13T22:24:08.985Z,30.17
2018-12-13T22:26:35.176Z,34.53
2018-12-13T22:29:01.058Z,30.43
2018-12-13T22:31:27.417Z,29.73
2018-12-13T22:33:53.436Z,32.13
2018-12-13T22:36:19.745Z,29.90
2018-12-13T22:38:46.814Z,37.23
2018-12-13T22:41:12.952Z,34.53
2018-12-13T22:43:39.201Z,31.90
2018-12-13T22:46:05.466Z,32.17
2018-12-13T22:48:31.710Z,27.83
2018-12-13T22:50:58.699Z,30.93
2018-12-13T22:53:24.968Z,26.60
2018-12-13T22:55:51.167Z,32.73
2018-12-13T22:58:17.398Z,30.73
2018-12-13T23:00:43.659Z,27.47
2018-12-13T23:03:09.855Z,24.53
2018-12-13T23:05:36.080Z,24.07
2018-12-13T23:08:02.384Z,27.10
2018-12-13T23:10:28.874Z,24.13
2018-12-13T23:12:55.180Z,25.17
2018-12-13T23:15:21.436Z,22.07
2018-12-13T23:17:47.622Z,28.27
2018-12-13T23:20:13.856Z,23.03
2018-12-13T23:22:40.737Z,27.73
2018-12-13T23:25:08.765Z,26.60
2018-12-13T23:27:35.404Z,24.77
2018-12-13T23:30:02.631Z,26.37
2018-12-13T23:32:28.686Z,30.43
2018-12-13T23:34:54.934Z,31.13
2018-12-13T23:37:21.172Z,25.77
2018-12-13T23:39:47.385Z,30.67
2018-12-13T23:42:14.435Z,33.47
2018-12-13T23:44:40.681Z,28.20
2018-12-13T23:47:06.878Z,30.40
2018-12-13T23:49:33.094Z,31.57
2018-12-13T23:51:59.549Z,31.97
2018-12-13T23:54:25.545Z,32.07
2018-12-13T23:56:51.779Z,31.63
2018-12-13T23:59:18.057Z,30.90
